Time;durP1;ratioP1;P1;durP2;ratioP2;P2;SDS_P1;SDS_P2;PMS_P1;PMS_P2;Temp;Humidity;BMP_temperature;BMP_pressure;BME280_temperature;BME280_humidity;BME280_pressure;Samples;Min_cycle;Max_cycle;Signal;HPM_P1;HPM_P2
2022/05/22 00:02:02;;;;;;;2.37;1.97;;;10.20;99.90;;;;;;6090615;23;20189;-82
2022/05/22 00:04:28;;;;;;;5.90;2.10;;;10.20;99.90;;;;;;6090174;23;20235;-81
2022/05/22 00:06:55;;;;;;;1.50;1.40;;;10.10;99.90;;;;;;6091235;23;20148;-83
2022/05/22 00:09:21;;;;;;;3.23;2.90;;;9.80;99.90;;;;;;6090023;23;20203;-82
2022/05/22 00:11:47;;;;;;;5.73;2.37;;;9.40;99.90;;;;;;6090556;23;20513;-80
2022/05/22 00:14:13;;;;;;;5.03;1.63;;;9.20;99.90;;;;;;6091997;23;20193;-86
2022/05/22 00:16:46;;;;;;;2.27;1.73;;;9.30;99.90;;;;;;6090075;23;20615;-81
2022/05/22 00:19:19;;;;;;;3.73;3.17;;;9.40;99.90;;;;;;6090877;23;20176;-84
2022/05/22 00:21:46;;;;;;;2.77;1.90;;;9.60;99.90;;;;;;6090420;23;20204;-84
2022/05/22 00:24:13;;;;;;;7.23;2.80;;;9.70;99.90;;;;;;6090264;23;20220;-88
2022/05/22 00:26:39;;;;;;;4.77;3.57;;;9.90;99.90;;;;;;6066377;23;20188;-80
2022/05/22 00:29:05;;;;;;;5.27;2.53;;;10.00;99.90;;;;;;6091578;23;20248;-83
2022/05/22 00:31:31;;;;;;;9.53;3.27;;;10.10;99.90;;;;;;6091665;23;20161;-85
2022/05/22 00:33:57;;;;;;;4.67;3.40;;;10.10;99.90;;;;;;6066979;23;20188;-80
2022/05/22 00:36:23;;;;;;;10.07;2.63;;;10.20;99.90;;;;;;6089604;23;20686;-82
2022/05/22 00:38:49;;;;;;;3.07;1.63;;;10.20;99.90;;;;;;6090075;23;20623;-83
2022/05/22 00:41:15;;;;;;;4.13;2.47;;;10.20;99.90;;;;;;6090035;23;20227;-81
2022/05/22 00:43:47;;;;;;;6.07;2.83;;;10.20;99.90;;;;;;6065971;23;20215;-83
2022/05/22 00:46:16;;;;;;;5.20;2.33;;;10.20;99.90;;;;;;6090483;23;20576;-85
2022/05/22 00:48:44;;;;;;;3.43;2.23;;;10.20;99.90;;;;;;6090270;23;20280;-82
2022/05/22 00:51:15;;;;;;;2.77;2.47;;;10.20;99.90;;;;;;6091372;23;20271;-81
2022/05/22 00:54:26;;;;;;;1.60;1.47;;;10.00;99.90;;;;;;6089846;23;20251;-81
2022/05/22 00:57:01;;;;;;;2.77;2.13;;;9.90;99.90;;;;;;6035548;23;20276;-81
2022/05/22 00:59:33;;;;;;;3.07;2.60;;;9.90;99.90;;;;;;6035395;23;20196;-84
2022/05/22 01:01:59;;;;;;;3.40;2.47;;;9.90;99.90;;;;;;6078887;23;20212;-82
2022/05/22 01:04:28;;;;;;;3.50;3.17;;;10.10;99.90;;;;;;6091228;23;20187;-84
2022/05/22 01:06:54;;;;;;;5.33;3.57;;;10.10;99.90;;;;;;6090403;23;20180;-83
2022/05/22 01:09:21;;;;;;;5.40;2.10;;;10.20;99.90;;;;;;6065881;23;20204;-86
2022/05/22 01:11:50;;;;;;;5.07;3.00;;;10.10;99.90;;;;;;6091702;23;20635;-82
2022/05/22 01:14:22;;;;;;;4.90;3.20;;;10.10;99.90;;;;;;6089681;23;20324;-83
2022/05/22 01:16:50;;;;;;;5.00;2.77;;;10.20;99.90;;;;;;6089824;23;20245;-82
2022/05/22 01:19:18;;;;;;;3.67;2.80;;;10.10;99.90;;;;;;6090514;23;20471;-82
2022/05/22 01:21:50;;;;;;;8.73;2.43;;;10.10;99.90;;;;;;6091541;23;20222;-83
2022/05/22 01:24:15;;;;;;;2.50;2.30;;;10.10;99.90;;;;;;6089861;23;20207;-82
2022/05/22 01:26:41;;;;;;;2.50;1.47;;;9.90;99.90;;;;;;6090168;23;20263;-86
2022/05/22 01:29:07;;;;;;;2.80;2.47;;;9.10;99.90;;;;;;6065866;23;20651;-82
2022/05/22 01:31:32;;;;;;;4.53;2.67;;;8.80;99.90;;;;;;6065842;23;20300;-83
2022/05/22 01:33:58;;;;;;;6.87;3.07;;;8.90;99.90;;;;;;6090148;23;20156;-82
2022/05/22 01:36:24;;;;;;;5.63;2.30;;;9.10;99.90;;;;;;6089856;23;20248;-81
2022/05/22 01:38:49;;;;;;;11.43;3.10;;;9.20;99.90;;;;;;6089919;23;20690;-84
2022/05/22 01:41:15;;;;;;;6.07;3.17;;;9.30;99.90;;;;;;6089592;23;20272;-84
2022/05/22 01:43:41;;;;;;;3.80;2.53;;;9.30;99.90;;;;;;6065632;23;20184;-81
2022/05/22 01:46:07;;;;;;;3.53;2.60;;;9.30;99.90;;;;;;6090350;23;20287;-82
2022/05/22 01:48:33;;;;;;;4.60;2.73;;;9.40;99.90;;;;;;6065265;23;20200;-81
2022/05/22 01:50:59;;;;;;;4.60;3.17;;;9.50;99.90;;;;;;6091050;23;20232;-82
2022/05/22 01:53:25;;;;;;;4.40;3.10;;;9.50;99.90;;;;;;6066052;23;20220;-82
2022/05/22 01:55:51;;;;;;;9.27;3.23;;;9.60;99.90;;;;;;6091117;23;20192;-83
2022/05/22 01:58:17;;;;;;;3.90;2.23;;;9.60;99.90;;;;;;6089525;23;20161;-82
2022/05/22 02:00:43;;;;;;;3.73;2.97;;;9.60;99.90;;;;;;6089679;23;20160;-83
2022/05/22 02:03:09;;;;;;;5.47;2.83;;;9.60;99.90;;;;;;6065591;23;20189;-83
2022/05/22 02:05:35;;;;;;;4.50;3.67;;;9.60;99.90;;;;;;6065489;23;20197;-80
2022/05/22 02:08:22;;;;;;;4.93;2.97;;;9.60;99.90;;;;;;6091247;23;20217;-81
2022/05/22 02:10:53;;;;;;;3.77;3.00;;;9.70;99.90;;;;;;6091062;23;20651;-85
2022/05/22 02:13:21;;;;;;;8.67;3.27;;;9.70;99.90;;;;;;6091295;23;20580;-82
2022/05/22 02:15:49;;;;;;;5.17;3.10;;;9.70;99.90;;;;;;6089744;23;20153;-84
2022/05/22 02:18:15;;;;;;;12.90;3.90;;;9.50;99.90;;;;;;6089699;23;20199;-82
2022/05/22 02:20:41;;;;;;;4.37;2.07;;;9.40;99.90;;;;;;6089008;23;20209;-82
2022/05/22 02:23:06;;;;;;;3.37;2.43;;;9.30;99.90;;;;;;6089293;23;20196;-84
2022/05/22 02:25:35;;;;;;;3.47;2.57;;;9.30;99.90;;;;;;6091201;23;20176;-81
2022/05/22 02:28:03;;;;;;;2.03;1.93;;;9.20;99.90;;;;;;6090081;23;20153;-81
2022/05/22 02:30:32;;;;;;;1.97;1.40;;;9.10;99.90;;;;;;6088995;23;20197;-81
2022/05/22 02:32:58;;;;;;;4.17;1.50;;;8.90;99.90;;;;;;6090193;23;20196;-82
2022/05/22 02:35:23;;;;;;;1.80;1.37;;;8.70;99.90;;;;;;6092783;23;20499;-81
2022/05/22 02:37:54;;;;;;;1.37;1.00;;;8.50;99.90;;;;;;6090705;23;20188;-83
2022/05/22 02:40:23;;;;;;;4.00;1.60;;;8.50;99.90;;;;;;6066918;23;20177;-82
2022/05/22 02:42:50;;;;;;;2.00;1.07;;;8.30;99.90;;;;;;6091312;23;20153;-83
2022/05/22 02:45:20;;;;;;;1.50;0.50;;;8.30;99.90;;;;;;6090796;23;20252;-81
2022/05/22 02:47:46;;;;;;;7.53;1.67;;;8.10;99.90;;;;;;6092425;23;20216;-81
2022/05/22 02:50:14;;;;;;;16.63;1.23;;;8.00;99.90;;;;;;6092554;23;20213;-83
2022/05/22 02:52:40;;;;;;;0.77;0.77;;;7.90;99.90;;;;;;6092163;23;20275;-81
2022/05/22 02:55:07;;;;;;;1.43;1.10;;;7.90;99.90;;;;;;6067382;23;20607;-81
2022/05/22 02:57:33;;;;;;;1.50;1.23;;;7.90;99.90;;;;;;6092079;23;20227;-85
2022/05/22 02:59:59;;;;;;;0.77;0.77;;;7.90;99.90;;;;;;6090827;23;20687;-82
2022/05/22 03:02:25;;;;;;;1.37;1.27;;;7.90;99.90;;;;;;6090894;23;20216;-81
2022/05/22 03:04:51;;;;;;;1.80;1.50;;;8.10;99.90;;;;;;6090646;23;20184;-83
2022/05/22 03:07:18;;;;;;;3.03;1.60;;;8.20;99.90;;;;;;6067113;23;20163;-82
2022/05/22 03:09:45;;;;;;;3.90;2.30;;;8.60;99.90;;;;;;6092622;23;20188;-81
2022/05/22 03:12:19;;;;;;;2.60;2.40;;;8.80;99.90;;;;;;6092539;23;20193;-82
2022/05/22 03:14:57;;;;;;;3.03;2.33;;;9.00;99.90;;;;;;6092135;23;20626;-83
2022/05/22 03:17:24;;;;;;;3.10;1.93;;;9.00;99.90;;;;;;6092111;23;20192;-82
2022/05/22 03:19:50;;;;;;;1.47;1.33;;;8.80;99.90;;;;;;6091439;23;20626;-82
2022/05/22 03:22:16;;;;;;;2.50;1.63;;;8.70;99.90;;;;;;6067593;23;20576;-83
2022/05/22 03:24:41;;;;;;;1.70;1.20;;;8.70;99.90;;;;;;6090890;23;20187;-82
2022/05/22 03:27:10;;;;;;;2.60;2.07;;;8.60;99.90;;;;;;6066714;23;20200;-83
2022/05/22 03:29:40;;;;;;;11.60;2.30;;;8.60;99.90;;;;;;6092182;23;20204;-81
2022/05/22 03:32:07;;;;;;;3.10;2.57;;;8.60;99.90;;;;;;6090959;23;20195;-82
2022/05/22 03:34:33;;;;;;;3.23;2.43;;;8.80;99.90;;;;;;6090142;23;20159;-81
2022/05/22 03:36:59;;;;;;;2.27;1.63;;;9.10;99.90;;;;;;6091249;23;20165;-83
2022/05/22 03:39:26;;;;;;;2.33;2.13;;;9.10;99.90;;;;;;6090581;23;20575;-82
2022/05/22 03:41:52;;;;;;;2.67;2.00;;;9.20;99.90;;;;;;6090280;23;20221;-82
2022/05/22 03:44:18;;;;;;;1.60;1.50;;;9.30;99.90;;;;;;6090739;23;20635;-84
2022/05/22 03:46:44;;;;;;;1.77;1.50;;;9.40;99.90;;;;;;6066669;23;20188;-82
2022/05/22 03:49:10;;;;;;;1.20;1.10;;;9.40;99.90;;;;;;6091088;23;20184;-83
2022/05/22 03:51:37;;;;;;;1.80;1.63;;;9.30;99.90;;;;;;6066449;23;20193;-84
2022/05/22 03:54:03;;;;;;;1.50;1.47;;;9.40;99.90;;;;;;6066830;23;20203;-82
2022/05/22 03:56:28;;;;;;;1.40;1.30;;;9.30;99.90;;;;;;6090552;23;20197;-86
2022/05/22 03:58:54;;;;;;;1.37;1.30;;;9.30;99.90;;;;;;6067059;23;20611;-81
2022/05/22 04:01:20;;;;;;;1.53;1.40;;;9.30;99.90;;;;;;6090203;23;20510;-82
2022/05/22 04:03:46;;;;;;;1.23;1.13;;;9.30;99.90;;;;;;6066928;23;20580;-82
2022/05/22 04:06:12;;;;;;;2.17;1.97;;;9.20;99.90;;;;;;6090474;23;20200;-82
2022/05/22 04:08:38;;;;;;;2.23;1.87;;;9.20;99.90;;;;;;6090235;23;20200;-82
2022/05/22 04:11:13;;;;;;;6.53;1.37;;;9.20;99.90;;;;;;6066687;23;20216;-82
2022/05/22 04:13:40;;;;;;;2.37;2.07;;;9.30;99.90;;;;;;6091972;23;20195;-82
2022/05/22 04:16:06;;;;;;;2.57;2.37;;;9.50;99.90;;;;;;6091183;23;20180;-82
2022/05/22 04:18:33;;;;;;;2.90;2.53;;;9.60;99.90;;;;;;6090188;23;20205;-81
2022/05/22 04:20:59;;;;;;;3.33;1.70;;;9.80;99.90;;;;;;6090006;23;20291;-84
2022/05/22 04:26:10;;;;;;;5.17;2.73;;;9.90;99.90;;;;;;6090329;23;20192;-82
2022/05/22 04:28:36;;;;;;;2.60;2.40;;;9.90;99.90;;;;;;6091317;23;20332;-82
2022/05/22 04:31:03;;;;;;;2.00;1.83;;;9.80;99.90;;;;;;6091020;23;20152;-84
2022/05/22 04:33:32;;;;;;;1.70;1.60;;;9.70;99.90;;;;;;6090180;23;20639;-82
2022/05/22 04:35:59;;;;;;;1.40;1.30;;;9.60;99.90;;;;;;6090329;23;20224;-82
2022/05/22 04:38:26;;;;;;;1.80;1.70;;;9.60;99.90;;;;;;6091837;23;20188;-83
2022/05/22 04:40:58;;;;;;;1.67;1.57;;;9.60;99.90;;;;;;6090013;23;20505;-85
2022/05/22 04:43:25;;;;;;;1.27;1.17;;;9.80;99.90;;;;;;6091888;23;20156;-82
2022/05/22 04:45:51;;;;;;;1.47;1.33;;;10.00;99.90;;;;;;6091285;23;20156;-83
2022/05/22 04:48:18;;;;;;;2.93;2.10;;;10.10;99.90;;;;;;6091916;23;20271;-82
2022/05/22 04:50:47;;;;;;;5.90;2.47;;;10.30;99.90;;;;;;6066167;23;20196;-82
2022/05/22 04:53:15;;;;;;;2.27;2.10;;;10.40;99.90;;;;;;6066718;23;20193;-82
2022/05/22 04:55:41;;;;;;;3.00;2.10;;;10.50;99.90;;;;;;6089769;23;20188;-82
2022/05/22 04:58:07;;;;;;;1.47;1.23;;;10.50;99.90;;;;;;6090714;23;20171;-82
2022/05/22 05:00:33;;;;;;;9.33;2.57;;;10.60;99.90;;;;;;6066612;23;20197;-82
2022/05/22 05:02:59;;;;;;;1.97;1.80;;;10.70;99.90;;;;;;6090529;23;20189;-83
2022/05/22 05:05:27;;;;;;;2.13;1.93;;;10.70;99.90;;;;;;6091966;23;20277;-83
2022/05/22 05:07:54;;;;;;;4.90;2.03;;;10.80;99.90;;;;;;6091050;23;20202;-83
2022/05/22 05:10:20;;;;;;;4.23;2.63;;;10.90;99.90;;;;;;6091159;23;20185;-83
2022/05/22 05:12:46;;;;;;;3.87;2.23;;;11.00;99.90;;;;;;6092799;23;20157;-83
2022/05/22 05:15:15;;;;;;;3.37;2.10;;;11.30;99.90;;;;;;6091733;23;20196;-83
2022/05/22 05:17:42;;;;;;;4.43;4.03;;;12.00;99.90;;;;;;6091021;23;20189;-82
2022/05/22 05:20:12;;;;;;;16.10;5.37;;;13.50;99.90;;;;;;6091044;23;20204;-85
2022/05/22 05:22:38;;;;;;;13.83;5.97;;;15.10;99.90;;;;;;6092789;23;20267;-82
2022/05/22 05:25:05;;;;;;;7.27;5.87;;;15.90;99.90;;;;;;6067714;23;20208;-82
2022/05/22 05:27:31;;;;;;;4.80;3.83;;;16.50;99.90;;;;;;6093030;23;20240;-85
2022/05/22 05:29:57;;;;;;;5.10;2.90;;;17.10;99.90;;;;;;6067090;23;20204;-82
2022/05/22 05:32:23;;;;;;;4.53;2.37;;;17.80;99.90;;;;;;6090419;23;20562;-81
2022/05/22 05:34:57;;;;;;;3.70;2.03;;;17.90;99.90;;;;;;6090269;23;20192;-83
2022/05/22 05:37:23;;;;;;;3.93;2.63;;;18.20;99.90;;;;;;6090714;23;20160;-82
2022/05/22 05:39:49;;;;;;;7.43;3.07;;;19.80;99.90;;;;;;6066977;23;20168;-81
2022/05/22 05:42:15;;;;;;;2.70;2.30;;;21.00;99.90;;;;;;6090705;23;20197;-85
2022/05/22 05:44:41;;;;;;;3.17;1.93;;;21.60;99.90;;;;;;6090990;23;20188;-82
2022/05/22 05:47:08;;;;;;;3.30;2.07;;;22.70;99.90;;;;;;6090002;23;20638;-83
2022/05/22 05:49:36;;;;;;;4.20;2.37;;;21.70;99.90;;;;;;6090480;23;20638;-87
2022/05/22 05:52:03;;;;;;;5.30;2.37;;;21.70;99.90;;;;;;6092719;23;20217;-83
2022/05/22 05:54:29;;;;;;;3.23;2.50;;;22.00;99.90;;;;;;6091321;23;20670;-82
2022/05/22 05:56:55;;;;;;;7.13;2.10;;;21.20;99.90;;;;;;6092733;23;20600;-86
2022/05/22 05:59:20;;;;;;;2.67;2.10;;;22.30;99.90;;;;;;6091401;23;20193;-84
2022/05/22 06:01:46;;;;;;;5.20;2.47;;;22.50;99.90;;;;;;6091233;23;20290;-86
2022/05/22 06:04:12;;;;;;;5.13;2.20;;;23.70;99.90;;;;;;6092257;23;20377;-84
2022/05/22 06:06:37;;;;;;;4.63;2.50;;;25.10;99.90;;;;;;6092541;23;20273;-84
2022/05/22 06:09:04;;;;;;;7.60;2.23;;;24.90;99.90;;;;;;6094202;23;20200;-84
2022/05/22 06:11:29;;;;;;;2.92;1.90;;;24.30;99.90;;;;;;6094701;23;20760;-84
2022/05/22 06:13:56;;;;;;;5.90;2.10;;;23.20;99.90;;;;;;6095050;23;20265;-85
2022/05/22 06:16:23;;;;;;;4.50;2.00;;;22.90;99.90;;;;;;6094734;23;20161;-85
2022/05/22 06:18:49;;;;;;;5.32;2.40;;;22.50;99.90;;;;;;6095810;23;20228;-84
2022/05/22 06:21:18;;;;;;;3.60;2.53;;;23.80;99.90;;;;;;6069667;23;20421;-84
2022/05/22 06:23:45;;;;;;;2.60;2.03;;;27.00;99.90;;;;;;6093201;23;20203;-84
2022/05/22 06:26:12;;;;;;;2.55;1.88;;;28.90;99.90;;;;;;6094322;23;20192;-83
2022/05/22 06:28:38;;;;;;;4.35;1.95;;;27.50;99.90;;;;;;6093395;23;20201;-87
2022/05/22 06:31:05;;;;;;;6.85;1.88;;;28.30;99.90;;;;;;6070339;23;20161;-85
2022/05/22 06:33:32;;;;;;;3.85;1.80;;;30.00;99.90;;;;;;6081228;23;20312;-85
2022/05/22 06:35:58;;;;;;;4.20;1.60;;;29.90;99.90;;;;;;6092926;23;20189;-87
2022/05/22 06:41:10;;;;;;;3.40;1.92;;;29.50;99.90;;;;;;6094659;23;20189;-85
2022/05/22 06:43:36;;;;;;;3.17;1.42;;;29.10;99.90;;;;;;6091807;23;20618;-85
2022/05/22 06:46:04;;;;;;;3.58;1.55;;;29.30;99.90;;;;;;6092812;23;20235;-86
2022/05/22 06:48:30;;;;;;;4.72;2.10;;;29.60;99.90;;;;;;6067775;23;20196;-85
2022/05/22 06:50:56;;;;;;;5.82;1.52;;;29.30;99.90;;;;;;6092133;23;20192;-85
2022/05/22 06:53:22;;;;;;;4.65;1.45;;;29.50;99.90;;;;;;6067779;23;20773;-86
2022/05/22 06:55:48;;;;;;;4.43;1.50;;;30.30;99.90;;;;;;6067471;23;20682;-83
2022/05/22 06:58:14;;;;;;;4.05;1.73;;;29.40;99.90;;;;;;6091608;23;20334;-83
2022/05/22 07:00:40;;;;;;;3.70;1.50;;;28.40;99.90;;;;;;6092968;23;20188;-84
2022/05/22 07:03:06;;;;;;;3.50;2.47;;;29.00;99.90;;;;;;6092694;23;20244;-83
2022/05/22 07:05:32;;;;;;;2.90;1.67;;;29.40;99.90;;;;;;6091519;23;20216;-86
2022/05/22 07:07:58;;;;;;;3.45;2.10;;;28.60;99.90;;;;;;6066761;23;20188;-87
2022/05/22 07:11:38;;;;;;;5.82;1.70;;;28.80;99.90;;;;;;6092017;23;20184;-84
2022/05/22 07:13:11;;;;;;;2.55;1.40;;;29.20;99.90;;;;;;6094351;23;20195;-86
2022/05/22 07:15:37;;;;;;;3.20;1.92;;;29.90;99.90;;;;;;6067223;23;20200;-83
2022/05/22 07:18:03;;;;;;;4.13;1.75;;;29.60;99.90;;;;;;6090653;23;20199;-83
2022/05/22 07:20:29;;;;;;;2.63;1.52;;;29.30;99.90;;;;;;6092570;23;20216;-87
2022/05/22 07:22:55;;;;;;;3.92;1.60;;;29.30;99.90;;;;;;6090726;23;20243;-85
2022/05/22 07:25:21;;;;;;;3.63;1.83;;;29.30;99.90;;;;;;6091072;23;20247;-87
2022/05/22 07:27:46;;;;;;;5.32;1.92;;;29.70;99.90;;;;;;6067651;23;20163;-82
2022/05/22 07:30:12;;;;;;;2.45;1.45;;;29.30;99.90;;;;;;6067298;23;20291;-84
2022/05/22 07:32:38;;;;;;;3.17;1.33;;;29.10;99.90;;;;;;6091203;23;20188;-86
2022/05/22 07:35:06;;;;;;;2.25;1.35;;;28.70;99.90;;;;;;6090960;23;20559;-88
2022/05/22 07:37:31;;;;;;;2.65;1.60;;;29.90;99.90;;;;;;6067359;23;20413;-87
2022/05/22 07:39:57;;;;;;;3.20;1.58;;;30.70;99.90;;;;;;6092895;23;20572;-85
2022/05/22 07:42:23;;;;;;;2.08;1.60;;;30.90;99.90;;;;;;6092913;23;20263;-84
2022/05/22 07:44:49;;;;;;;2.63;1.48;;;29.90;99.90;;;;;;6066857;23;20267;-85
2022/05/22 07:47:15;;;;;;;2.95;1.48;;;30.60;99.90;;;;;;6067106;23;20516;-84
2022/05/22 07:52:26;;;;;;;4.75;1.55;;;29.50;99.90;;;;;;6090573;23;20172;-86
2022/05/22 07:54:52;;;;;;;5.43;2.25;;;28.70;99.90;;;;;;6089414;23;20387;-85
2022/05/22 07:57:18;;;;;;;4.28;1.38;;;29.30;99.90;;;;;;6089946;23;20213;-87
2022/05/22 07:59:44;;;;;;;7.90;1.92;;;29.90;99.90;;;;;;6066609;23;20204;-87
2022/05/22 08:02:15;;;;;;;4.03;1.42;;;29.80;99.90;;;;;;6066343;23;20276;-87
2022/05/22 08:04:42;;;;;;;3.33;1.35;;;30.60;99.90;;;;;;6067084;23;20189;-86
2022/05/22 08:07:08;;;;;;;3.28;1.65;;;30.80;99.90;;;;;;6092578;23;20156;-87
2022/05/22 08:09:34;;;;;;;3.45;1.83;;;29.60;99.90;;;;;;6091131;23;20449;-88
2022/05/22 08:12:00;;;;;;;1.60;1.50;;;29.70;99.90;;;;;;6089986;23;20662;-89
2022/05/22 08:14:26;;;;;;;4.20;1.85;;;29.60;99.90;;;;;;6091371;23;20196;-86
2022/05/22 08:16:54;;;;;;;2.35;1.70;;;29.50;99.90;;;;;;6065701;23;20189;-85
2022/05/22 08:19:20;;;;;;;5.97;2.20;;;29.60;99.90;;;;;;6066574;23;20164;-84
2022/05/22 08:21:45;;;;;;;5.20;2.33;;;29.40;99.90;;;;;;6089947;23;20188;-86
2022/05/22 08:24:12;;;;;;;5.45;2.13;;;28.60;99.90;;;;;;6089843;23;20678;-83
2022/05/22 08:26:37;;;;;;;7.93;2.00;;;29.50;99.90;;;;;;6066179;23;20193;-88
2022/05/22 08:29:03;;;;;;;3.95;2.20;;;29.70;99.90;;;;;;6065028;23;20207;-86
2022/05/22 08:31:29;;;;;;;4.75;1.48;;;30.50;99.90;;;;;;6065213;23;20160;-84
2022/05/22 08:33:55;;;;;;;3.13;1.60;;;30.80;99.90;;;;;;6091817;23;20179;-84
2022/05/22 08:36:21;;;;;;;4.10;1.50;;;30.20;99.90;;;;;;6064803;23;20641;-84
2022/05/22 08:38:47;;;;;;;4.25;1.85;;;30.20;99.90;;;;;;6065469;23;20236;-85
2022/05/22 08:41:27;;;;;;;4.72;1.67;;;29.40;99.90;;;;;;6089632;23;20197;-84
2022/05/22 08:44:02;;;;;;;3.45;1.73;;;28.50;99.90;;;;;;6091124;23;20192;-86
2022/05/22 08:46:28;;;;;;;2.92;1.50;;;29.60;99.90;;;;;;6089112;23;20141;-82
2022/05/22 08:48:57;;;;;;;3.33;1.80;;;30.90;98.50;;;;;;6089208;23;20180;-82
2022/05/22 08:51:35;;;;;;;4.35;1.83;;;30.00;99.10;;;;;;6089131;23;20199;-84
2022/05/22 08:54:21;;;;;;;3.40;1.33;;;28.20;98.10;;;;;;6090573;23;20255;-83
2022/05/22 08:59:37;;;;;;;3.03;1.40;;;30.00;97.80;;;;;;6090183;23;20271;-85
2022/05/22 09:02:24;;;;;;;5.75;1.55;;;30.00;96.50;;;;;;6090884;23;20192;-84
2022/05/22 09:04:57;;;;;;;4.30;1.58;;;30.00;95.50;;;;;;6088651;23;20717;-86
2022/05/22 09:07:34;;;;;;;3.88;1.40;;;29.30;97.10;;;;;;6090713;23;20149;-85
2022/05/22 09:10:11;;;;;;;1.40;1.30;;;29.30;98.50;;;;;;6088782;23;20178;-85
2022/05/22 09:13:05;;;;;;;4.20;1.40;;;28.30;97.10;;;;;;6089529;23;20197;-84
2022/05/22 09:15:45;;;;;;;2.60;1.40;;;29.30;99.10;;;;;;6088717;23;20197;-86
2022/05/22 09:18:37;;;;;;;5.45;1.50;;;28.40;99.90;;;;;;6089133;23;20656;-86
2022/05/22 09:21:15;;;;;;;1.80;1.50;;;29.50;96.90;;;;;;6088272;23;20208;-83
2022/05/22 09:23:52;;;;;;;5.43;1.55;;;29.20;96.10;;;;;;6088937;23;20192;-85
2022/05/22 09:26:36;;;;;;;3.33;1.75;;;29.60;96.60;;;;;;6088887;23;20192;-85
2022/05/22 09:29:14;;;;;;;3.90;1.65;;;29.30;96.20;;;;;;6088831;23;20209;-84
2022/05/22 09:32:19;;;;;;;4.28;1.95;;;29.70;97.10;;;;;;6090191;23;20199;-84
2022/05/22 09:35:03;;;;;;;3.70;1.80;;;30.40;98.50;;;;;;6077951;23;20185;-84
2022/05/22 09:37:48;;;;;;;3.05;1.38;;;30.50;95.00;;;;;;6088880;23;20145;-87
2022/05/22 09:40:19;;;;;;;3.42;2.33;;;28.80;98.30;;;;;;6089713;23;20196;-85
2022/05/22 09:43:11;;;;;;;3.38;2.10;;;29.70;96.60;;;;;;6091501;23;20180;-86
2022/05/22 09:45:54;;;;;;;5.70;2.10;;;29.50;98.10;;;;;;6093097;23;20196;-86
2022/05/22 09:48:29;;;;;;;7.65;2.30;;;29.30;98.00;;;;;;6091724;23;20488;-85
2022/05/22 09:51:10;;;;;;;3.47;1.80;;;28.70;97.80;;;;;;6090549;23;20196;-84
2022/05/22 09:54:09;;;;;;;4.38;1.60;;;27.30;97.90;;;;;;6093531;23;20596;-86
2022/05/22 09:57:00;;;;;;;3.13;1.98;;;25.90;99.90;;;;;;6058748;23;20197;-86
2022/05/22 09:59:46;;;;;;;9.40;3.28;;;25.60;99.90;;;;;;6098012;23;20199;-87
2022/05/22 10:02:48;;;;;;;3.83;2.25;;;25.40;99.90;;;;;;6093984;23;20257;-86
2022/05/22 10:05:25;;;;;;;6.72;2.45;;;25.80;99.90;;;;;;6093662;23;20236;-88
2022/05/22 10:08:28;;;;;;;4.68;2.58;;;26.80;99.90;;;;;;6093374;23;20193;-88
2022/05/22 10:11:12;;;;;;;2.80;1.63;;;26.00;99.90;;;;;;6091512;23;20607;-86
2022/05/22 10:13:47;;;;;;;2.38;1.90;;;25.50;99.90;;;;;;6091740;23;20192;-84
2022/05/22 10:16:45;;;;;;;4.45;2.15;;;26.40;99.90;;;;;;6092431;23;20172;-87
2022/05/22 10:19:35;;;;;;;4.50;2.28;;;26.60;99.90;;;;;;6092366;23;20251;-85
2022/05/22 10:22:20;;;;;;;5.55;2.50;;;27.30;99.90;;;;;;6091704;23;20251;-87
2022/05/22 10:25:24;;;;;;;9.57;2.53;;;27.80;99.90;;;;;;6092120;23;20326;-86
2022/05/22 10:28:00;;;;;;;3.28;2.40;;;27.30;99.90;;;;;;6092438;23;20183;-86
2022/05/22 10:30:42;;;;;;;4.63;2.30;;;26.00;99.90;;;;;;6093216;23;20710;-85
2022/05/22 10:33:20;;;;;;;4.65;2.05;;;25.70;99.90;;;;;;6091446;23;20200;-86
2022/05/22 10:36:03;;;;;;;5.03;2.28;;;25.30;99.90;;;;;;6092243;23;20199;-86
2022/05/22 10:38:39;;;;;;;5.80;2.40;;;26.40;99.90;;;;;;6091340;23;20267;-86
2022/05/22 10:44:26;;;;;;;6.68;2.20;;;27.00;99.90;;;;;;6093205;23;20195;-85
2022/05/22 10:46:54;;;;;;;3.65;2.20;;;26.50;99.90;;;;;;6091172;23;20236;-85
2022/05/22 10:49:25;;;;;;;5.70;2.30;;;26.00;99.90;;;;;;6091657;23;20553;-84
2022/05/22 10:51:59;;;;;;;2.17;1.83;;;23.90;99.90;;;;;;6092122;23;20141;-87
2022/05/22 10:54:29;;;;;;;3.30;1.95;;;24.10;99.90;;;;;;6092692;23;20354;-84
2022/05/22 10:57:08;;;;;;;3.85;2.00;;;23.80;99.90;;;;;;6092455;23;20651;-85
2022/05/22 10:59:34;;;;;;;6.05;1.98;;;23.20;99.90;;;;;;6091247;23;20196;-85
2022/05/22 11:02:03;;;;;;;6.03;1.73;;;23.20;99.90;;;;;;6091089;23;20284;-86
2022/05/22 11:04:43;;;;;;;4.07;1.90;;;25.10;99.90;;;;;;6092755;23;20635;-84
2022/05/22 11:07:10;;;;;;;5.43;1.67;;;26.30;99.90;;;;;;6092029;23;20454;-84
2022/05/22 11:09:48;;;;;;;3.30;1.42;;;26.40;99.90;;;;;;6066928;23;20256;-84
2022/05/22 11:12:22;;;;;;;2.95;1.60;;;26.80;99.90;;;;;;6092993;23;20215;-88
2022/05/22 11:14:48;;;;;;;3.60;1.55;;;27.20;99.90;;;;;;6092019;23;20188;-86
2022/05/22 11:17:20;;;;;;;4.82;2.00;;;25.60;99.90;;;;;;6067486;23;20703;-86
2022/05/22 11:19:54;;;;;;;3.28;1.98;;;24.30;99.90;;;;;;6091620;23;20188;-86
2022/05/22 11:22:31;;;;;;;5.35;2.20;;;23.50;99.90;;;;;;6091040;23;20271;-87
2022/05/22 11:25:27;;;;;;;3.70;1.92;;;24.00;99.90;;;;;;6093367;23;20228;-86
2022/05/22 11:28:31;;;;;;;2.08;1.67;;;24.80;99.90;;;;;;6091871;23;20309;-89
2022/05/22 11:31:12;;;;;;;3.83;1.73;;;25.10;99.90;;;;;;6030484;23;20192;-89
2022/05/22 11:33:59;;;;;;;3.38;1.73;;;24.80;99.90;;;;;;6091277;23;20223;-87
2022/05/22 11:37:03;;;;;;;2.60;1.50;;;25.60;99.90;;;;;;6091879;23;20197;-86
2022/05/22 11:39:31;;;;;;;2.67;1.35;;;23.70;99.90;;;;;;6090509;23;20647;-88
2022/05/22 11:42:04;;;;;;;3.33;1.60;;;22.30;99.90;;;;;;6090780;23;20188;-89
2022/05/22 11:45:11;;;;;;;3.85;1.70;;;22.10;99.90;;;;;;6091423;23;20223;-87
2022/05/22 11:48:15;;;;;;;3.55;1.15;;;23.30;99.90;;;;;;6090189;23;20196;-87
2022/05/22 11:51:18;;;;;;;3.67;1.35;;;24.50;99.90;;;;;;6083041;23;20595;-89
2022/05/22 11:54:08;;;;;;;2.08;1.23;;;25.30;99.90;;;;;;6091477;23;20194;-86
2022/05/22 11:56:50;;;;;;;2.47;1.73;;;26.00;99.90;;;;;;6091326;23;20199;-86
2022/05/22 11:59:49;;;;;;;3.33;1.42;;;26.10;99.90;;;;;;6092699;23;20271;-86
2022/05/22 12:02:47;;;;;;;2.22;1.20;;;25.60;99.90;;;;;;6092498;23;20199;-86
2022/05/22 12:05:22;;;;;;;7.10;1.60;;;26.00;99.90;;;;;;6018274;23;20205;-89
2022/05/22 12:08:06;;;;;;;3.95;1.85;;;24.50;99.90;;;;;;6063993;23;20199;-87
2022/05/22 12:10:33;;;;;;;0.98;0.95;;;24.60;99.90;;;;;;6063661;23;20228;-88
2022/05/22 12:13:05;;;;;;;4.80;1.83;;;25.20;99.90;;;;;;6062628;23;20157;-87
2022/05/22 12:15:40;;;;;;;4.95;1.70;;;25.60;99.90;;;;;;6062159;23;20193;-85
2022/05/22 12:18:22;;;;;;;4.70;1.20;;;23.60;99.90;;;;;;6061985;23;20192;-85
2022/05/22 12:21:05;;;;;;;2.97;1.50;;;22.10;99.90;;;;;;6062031;23;20633;-85
2022/05/22 12:24:05;;;;;;;3.63;1.52;;;21.40;99.90;;;;;;6063389;23;20276;-86
2022/05/22 12:26:33;;;;;;;2.15;1.45;;;20.80;99.90;;;;;;6062721;23;20535;-85
2022/05/22 12:29:12;;;;;;;2.93;1.87;;;20.60;99.90;;;;;;6046657;23;20201;-88
2022/05/22 12:31:49;;;;;;;5.47;1.67;;;20.80;99.90;;;;;;6091731;23;20196;-85
2022/05/22 12:34:39;;;;;;;4.97;1.67;;;21.40;99.90;;;;;;6091677;23;20647;-85
2022/05/22 12:37:11;;;;;;;1.73;1.27;;;22.60;99.90;;;;;;6092645;23;20189;-86
2022/05/22 12:39:48;;;;;;;4.50;1.53;;;23.60;99.90;;;;;;6091301;23;20279;-84
2022/05/22 12:42:23;;;;;;;4.23;1.73;;;23.40;99.90;;;;;;6090530;23;20268;-86
2022/05/22 12:44:49;;;;;;;4.83;2.13;;;23.60;99.90;;;;;;6091373;23;20204;-87
2022/05/22 12:47:15;;;;;;;2.40;1.60;;;23.60;99.90;;;;;;6066739;23;20204;-84
2022/05/22 12:49:54;;;;;;;8.35;2.53;;;23.00;99.90;;;;;;6090339;23;20226;-85
2022/05/22 12:52:28;;;;;;;5.13;1.83;;;22.80;99.90;;;;;;6066655;23;20157;-86
2022/05/22 12:55:37;;;;;;;4.80;1.80;;;22.80;99.90;;;;;;6092923;23;20200;-85
2022/05/22 12:58:25;;;;;;;6.70;2.63;;;22.70;99.90;;;;;;5951643;24;20529;-89
2022/05/22 13:00:51;;;;;;;2.90;1.85;;;22.50;99.90;;;;;;6107260;23;20193;-85
2022/05/22 13:03:22;;;;;;;3.60;2.05;;;22.20;99.90;;;;;;6073430;23;20203;-86
2022/05/22 13:06:06;;;;;;;3.17;2.17;;;22.20;99.90;;;;;;6104015;23;20227;-87
2022/05/22 13:08:47;;;;;;;3.40;2.40;;;22.20;99.90;;;;;;6097236;23;20196;-87
2022/05/22 13:11:19;;;;;;;2.37;1.80;;;21.90;99.90;;;;;;6091769;23;20204;-86
2022/05/22 13:13:50;;;;;;;3.43;1.80;;;21.60;99.90;;;;;;6089900;23;20197;-86
2022/05/22 13:16:34;;;;;;;8.30;2.70;;;21.40;99.90;;;;;;6090193;23;20237;-85
2022/05/22 13:19:00;;;;;;;4.43;2.20;;;21.50;99.90;;;;;;6062585;23;20200;-88
2022/05/22 13:21:38;;;;;;;4.90;2.00;;;21.80;99.90;;;;;;6086792;23;20228;-87
2022/05/22 13:24:22;;;;;;;5.07;1.73;;;22.00;99.90;;;;;;6089507;23;20569;-86
2022/05/22 13:27:07;;;;;;;4.57;1.80;;;21.60;99.90;;;;;;6090923;23;20655;-87
2022/05/22 13:30:11;;;;;;;2.83;2.40;;;21.70;99.90;;;;;;6089686;23;20211;-88